createdAt,value
2022-08-17T00:03:28.097Z,14.48
2022-08-17T00:06:04.399Z,13.20
2022-08-17T00:08:41.374Z,14.65
2022-08-17T00:13:46.201Z,14.52
2022-08-17T00:16:56.436Z,14.13
2022-08-17T00:19:22.997Z,14.20
2022-08-17T00:22:30.130Z,15.93
2022-08-17T00:24:42.470Z,14.32
2022-08-17T00:27:14.362Z,14.60
2022-08-17T00:29:45.467Z,15.00
2022-08-17T00:33:14.211Z,15.77
2022-08-17T00:35:11.164Z,13.98
2022-08-17T00:37:45.404Z,14.77
2022-08-17T00:42:45.045Z,14.15
2022-08-17T00:45:20.319Z,14.93
2022-08-17T00:47:50.089Z,14.43
2022-08-17T00:50:22.228Z,14.48
2022-08-17T00:53:00.224Z,14.55
2022-08-17T00:55:32.937Z,15.55
2022-08-17T00:58:04.442Z,15.75
2022-08-17T01:00:41.068Z,15.50
2022-08-17T01:03:15.505Z,14.60
2022-08-17T01:08:21.333Z,15.40
2022-08-17T01:10:59.779Z,15.60
2022-08-17T01:13:40.640Z,16.20
2022-08-17T01:16:18.466Z,13.95
2022-08-17T01:18:51.674Z,16.05
2022-08-17T01:21:50.232Z,16.02
2022-08-17T01:24:22.362Z,16.17
2022-08-17T01:26:51.813Z,15.88
2022-08-17T01:31:58.110Z,15.82
2022-08-17T01:34:42.309Z,14.40
2022-08-17T01:37:15.029Z,14.60
2022-08-17T01:39:47.558Z,15.27
2022-08-17T01:42:31.485Z,14.52
2022-08-17T01:45:10.942Z,15.15
2022-08-17T01:47:38.449Z,15.18
2022-08-17T01:50:08.706Z,14.48
2022-08-17T01:52:39.283Z,16.25
2022-08-17T01:55:07.749Z,14.82
2022-08-17T01:57:39.770Z,14.88
2022-08-17T02:00:10.653Z,13.93
2022-08-17T02:02:41.141Z,15.63
2022-08-17T02:05:09.079Z,15.40
2022-08-17T02:07:59.808Z,15.75
2022-08-17T02:10:33.813Z,16.38
2022-08-17T02:13:11.338Z,15.52
2022-08-17T02:15:41.491Z,15.75
2022-08-17T02:18:17.247Z,15.30
2022-08-17T02:20:44.624Z,15.65
2022-08-17T02:23:14.452Z,15.95
2022-08-17T02:25:47.746Z,15.57
2022-08-17T02:28:15.958Z,15.60
2022-08-17T02:30:59.984Z,15.75
2022-08-17T02:33:42.592Z,15.25
2022-08-17T02:36:15.218Z,15.82
2022-08-17T02:38:46.125Z,15.93
2022-08-17T02:41:13.467Z,15.02
2022-08-17T02:43:42.801Z,15.05
2022-08-17T02:46:12.950Z,16.35
2022-08-17T02:48:42.233Z,14.95
2022-08-17T02:51:11.576Z,14.90
2022-08-17T02:53:41.181Z,15.02
2022-08-17T02:56:15.245Z,16.27
2022-08-17T02:58:42.778Z,15.57
2022-08-17T03:01:14.843Z,15.02
2022-08-17T03:03:44.587Z,15.18
2022-08-17T03:06:14.050Z,14.68
2022-08-17T03:08:46.036Z,14.77
2022-08-17T03:11:18.837Z,15.25
2022-08-17T03:13:48.191Z,14.70
2022-08-17T03:16:20.701Z,14.98
2022-08-17T03:18:48.560Z,15.68
2022-08-17T03:21:17.927Z,15.68
2022-08-17T03:23:47.750Z,16.58
2022-08-17T03:26:21.783Z,15.65
2022-08-17T03:28:53.293Z,15.40
2022-08-17T03:31:22.743Z,14.50
2022-08-17T03:33:52.708Z,14.73
2022-08-17T03:36:26.934Z,15.50
2022-08-17T03:38:54.481Z,14.07
2022-08-17T03:41:24.037Z,14.32
2022-08-17T03:43:51.079Z,14.52
2022-08-17T03:46:37.203Z,13.98
2022-08-17T03:49:27.305Z,16.90
2022-08-17T03:52:14.602Z,15.65
2022-08-17T03:55:03.166Z,14.50
2022-08-17T03:57:32.938Z,14.27
2022-08-17T04:00:04.582Z,16.85
2022-08-17T04:02:47.460Z,15.45
2022-08-17T04:05:17.093Z,16.63
2022-08-17T04:07:46.640Z,14.77
2022-08-17T04:10:16.085Z,14.75
2022-08-17T04:12:54.617Z,15.40
2022-08-17T04:15:24.755Z,15.75
2022-08-17T04:17:52.383Z,15.52
2022-08-17T04:20:23.766Z,16.52
2022-08-17T04:23:00.340Z,15.65
2022-08-17T04:25:32.404Z,13.80
2022-08-17T04:28:05.291Z,16.98
2022-08-17T04:30:47.535Z,15.95
2022-08-17T04:33:25.479Z,15.07
2022-08-17T04:35:56.435Z,14.55
2022-08-17T04:38:27.658Z,15.38
2022-08-17T04:41:19.326Z,17.08
2022-08-17T04:43:48.926Z,14.52
2022-08-17T04:46:21.310Z,12.57
2022-08-17T04:48:57.135Z,14.63
2022-08-17T04:51:36.936Z,12.90
2022-08-17T04:54:19.215Z,12.93
2022-08-17T04:56:49.123Z,13.00
2022-08-17T04:59:20.054Z,13.10
2022-08-17T05:01:49.834Z,13.43
2022-08-17T05:04:33.845Z,14.65
2022-08-17T05:07:07.750Z,12.73
2022-08-17T05:09:40.159Z,12.55
2022-08-17T05:12:07.797Z,13.52
2022-08-17T05:14:34.983Z,14.30
2022-08-17T05:17:11.075Z,13.30
2022-08-17T05:19:38.820Z,13.68
2022-08-17T05:22:10.843Z,13.50
2022-08-17T05:24:43.684Z,13.02
2022-08-17T05:27:23.725Z,11.82
2022-08-17T05:29:50.778Z,11.73
2022-08-17T05:32:38.550Z,13.90
2022-08-17T05:35:09.943Z,14.27
2022-08-17T05:37:39.343Z,12.63
2022-08-17T05:40:07.297Z,13.60
2022-08-17T05:42:39.865Z,13.80
2022-08-17T05:45:10.646Z,17.23
2022-08-17T05:47:39.242Z,14.00
2022-08-17T05:50:09.562Z,13.52
2022-08-17T05:53:07.819Z,13.57
2022-08-17T05:55:59.385Z,12.73
2022-08-17T05:58:46.753Z,13.15
2022-08-17T06:01:52.936Z,13.90
2022-08-17T06:05:03.802Z,12.88
2022-08-17T06:07:55.690Z,13.77
2022-08-17T06:10:46.517Z,13.07
2022-08-17T06:13:27.516Z,13.98
2022-08-17T06:16:33.134Z,11.63
2022-08-17T06:19:33.759Z,12.27
2022-08-17T06:22:02.758Z,12.77
2022-08-17T06:24:42.020Z,12.48
2022-08-17T06:27:32.047Z,13.55
2022-08-17T06:30:26.725Z,12.35
2022-08-17T06:32:59.458Z,11.55
2022-08-17T06:35:44.379Z,10.63
2022-08-17T06:38:36.914Z,11.32
2022-08-17T06:41:26.763Z,11.48
2022-08-17T06:44:09.989Z,11.38
2022-08-17T06:46:48.611Z,11.10
2022-08-17T06:49:33.823Z,10.52
2022-08-17T06:52:37.199Z,11.32
2022-08-17T06:55:18.179Z,10.10
2022-08-17T06:57:55.885Z,10.18
2022-08-17T07:00:26.798Z,9.25
2022-08-17T07:03:09.771Z,9.35
2022-08-17T07:05:45.601Z,9.05
2022-08-17T07:08:27.741Z,9.13
2022-08-17T07:11:03.030Z,8.65
2022-08-17T07:13:51.093Z,9.05
2022-08-17T07:16:36.314Z,8.13
2022-08-17T07:19:10.841Z,8.18
2022-08-17T07:22:14.665Z,9.60
2022-08-17T07:24:52.371Z,9.85
2022-08-17T07:27:45.807Z,9.50
2022-08-17T07:30:26.994Z,8.00
2022-08-17T07:33:00.239Z,8.10
2022-08-17T07:35:31.222Z,9.55
2022-08-17T07:38:25.394Z,8.95
2022-08-17T07:41:05.159Z,8.25
2022-08-17T07:43:45.036Z,8.55
2022-08-17T07:46:45.002Z,9.00
2022-08-17T07:49:14.453Z,8.18
2022-08-17T07:51:46.686Z,7.97
2022-08-17T07:54:22.178Z,9.00
2022-08-17T07:57:00.702Z,7.68
2022-08-17T07:59:58.635Z,8.63
2022-08-17T08:02:34.469Z,8.05
2022-08-17T08:05:10.138Z,8.60
2022-08-17T08:07:50.670Z,7.15
2022-08-17T08:10:28.145Z,7.88
2022-08-17T08:13:25.026Z,6.65
2022-08-17T08:15:55.717Z,6.70
2022-08-17T08:18:54.473Z,7.45
2022-08-17T08:21:28.956Z,7.50
2022-08-17T08:24:40.725Z,7.30
2022-08-17T08:27:20.009Z,7.30
2022-08-17T08:30:10.141Z,7.38
2022-08-17T08:32:40.500Z,8.32
2022-08-17T08:35:22.976Z,8.70
2022-08-17T08:38:15.451Z,7.95
2022-08-17T08:40:51.073Z,9.50
2022-08-17T08:43:38.075Z,8.65
2022-08-17T08:46:38.053Z,7.78
2022-08-17T08:49:45.307Z,9.18
2022-08-17T08:52:51.786Z,8.73
2022-08-17T08:55:21.336Z,8.43
2022-08-17T08:58:07.723Z,8.35
2022-08-17T09:00:59.843Z,9.43
2022-08-17T09:04:02.832Z,9.18
2022-08-17T09:06:51.132Z,9.20
2022-08-17T09:09:44.534Z,9.35
2022-08-17T09:12:34.598Z,9.13
2022-08-17T09:15:12.315Z,9.65
2022-08-17T09:19:01.184Z,9.25
2022-08-17T09:21:02.835Z,9.30
2022-08-17T09:23:32.835Z,9.65
2022-08-17T09:26:17.033Z,10.75
2022-08-17T09:28:51.748Z,9.23
2022-08-17T09:31:35.487Z,10.57
2022-08-17T09:34:18.304Z,9.27
2022-08-17T09:37:18.191Z,8.93
2022-08-17T09:39:56.878Z,9.18
2022-08-17T09:42:59.386Z,11.20
2022-08-17T09:45:36.246Z,8.67
2022-08-17T09:48:14.509Z,9.32
2022-08-17T09:51:23.839Z,9.32
2022-08-17T09:53:54.248Z,8.88
2022-08-17T09:56:43.760Z,9.05
2022-08-17T09:59:48.667Z,8.88
2022-08-17T10:02:53.489Z,9.25
2022-08-17T10:05:48.362Z,8.05
2022-08-17T10:08:21.770Z,8.32
2022-08-17T10:10:58.814Z,8.00
2022-08-17T10:13:59.532Z,7.63
2022-08-17T10:16:52.314Z,7.82
2022-08-17T10:19:44.002Z,7.63
2022-08-17T10:23:10.531Z,7.35
2022-08-17T10:26:04.103Z,7.05
2022-08-17T10:29:06.252Z,8.55
2022-08-17T10:31:45.591Z,8.52
2022-08-17T10:34:41.883Z,8.30
2022-08-17T10:37:30.539Z,8.65
2022-08-17T10:40:21.324Z,8.60
2022-08-17T10:43:00.080Z,8.00
2022-08-17T10:46:14.565Z,8.00
2022-08-17T10:49:15.126Z,8.23
2022-08-17T10:51:59.890Z,8.27
2022-08-17T10:54:35.901Z,8.18
2022-08-17T10:57:22.926Z,7.95
2022-08-17T10:59:52.174Z,8.23
2022-08-17T11:02:27.525Z,8.40
2022-08-17T11:05:00.676Z,7.63
2022-08-17T11:08:07.516Z,8.38
2022-08-17T11:10:52.993Z,9.13
2022-08-17T11:13:50.575Z,8.10
2022-08-17T11:16:45.592Z,8.35
2022-08-17T11:19:47.760Z,8.35
2022-08-17T11:25:18.993Z,8.18
2022-08-17T11:27:53.443Z,7.95
2022-08-17T11:30:48.718Z,7.68
2022-08-17T11:33:30.404Z,7.40
2022-08-17T11:36:35.874Z,8.93
2022-08-17T11:39:29.552Z,7.32
2022-08-17T11:42:11.892Z,8.10
2022-08-17T11:44:53.127Z,7.85
2022-08-17T11:48:23.878Z,7.80
2022-08-17T11:51:35.340Z,6.70
2022-08-17T11:54:31.878Z,7.45
2022-08-17T11:56:59.474Z,7.10
2022-08-17T11:59:45.970Z,8.55
2022-08-17T12:02:31.374Z,8.52
2022-08-17T12:05:13.100Z,8.70
2022-08-17T12:07:44.768Z,6.65
2022-08-17T12:10:21.595Z,7.63
2022-08-17T12:12:53.073Z,7.20
2022-08-17T12:15:30.040Z,6.85
2022-08-17T12:17:58.062Z,7.50
2022-08-17T12:20:30.987Z,6.22
2022-08-17T12:23:21.932Z,6.78
2022-08-17T12:26:19.829Z,6.35
2022-08-17T12:28:52.257Z,6.53
2022-08-17T12:31:25.987Z,7.22
2022-08-17T12:33:56.367Z,6.93
2022-08-17T12:36:28.422Z,7.40
2022-08-17T12:39:12.803Z,7.05
2022-08-17T12:41:46.927Z,7.50
2022-08-17T12:44:28.053Z,8.02
2022-08-17T12:47:22.782Z,8.07
2022-08-17T12:49:54.574Z,6.20
2022-08-17T12:52:26.631Z,7.78
2022-08-17T12:55:11.062Z,7.43
2022-08-17T12:57:59.624Z,7.05
2022-08-17T13:00:47.550Z,7.68
2022-08-17T13:03:19.226Z,7.43
2022-08-17T13:05:57.790Z,7.53
2022-08-17T13:08:36.001Z,7.03
2022-08-17T13:11:20.658Z,8.00
2022-08-17T13:13:56.192Z,6.82
2022-08-17T13:16:30.154Z,7.78
2022-08-17T13:19:08.449Z,7.60
2022-08-17T13:21:43.961Z,8.05
2022-08-17T13:24:17.068Z,8.10
2022-08-17T13:26:50.445Z,7.70
2022-08-17T13:29:25.363Z,8.75
2022-08-17T13:32:13.485Z,8.90
2022-08-17T13:35:12.468Z,7.85
2022-08-17T13:37:57.725Z,8.50
2022-08-17T13:40:30.879Z,7.90
2022-08-17T13:43:03.274Z,9.00
2022-08-17T13:46:09.351Z,8.00
2022-08-17T13:48:42.277Z,8.00
2022-08-17T13:51:30.722Z,7.80
2022-08-17T13:54:00.498Z,7.90
2022-08-17T13:56:44.854Z,8.75
2022-08-17T13:59:36.076Z,8.32
2022-08-17T14:02:18.539Z,9.05
2022-08-17T14:04:52.702Z,8.15
2022-08-17T14:07:19.945Z,10.25
2022-08-17T14:09:53.266Z,8.38
2022-08-17T14:12:25.077Z,8.00
2022-08-17T14:14:58.867Z,8.82
2022-08-17T14:17:29.459Z,8.30
2022-08-17T14:20:00.002Z,9.35
2022-08-17T14:22:33.620Z,9.13
2022-08-17T14:25:04.381Z,9.00
2022-08-17T14:27:53.607Z,8.30
2022-08-17T14:30:28.964Z,9.18
2022-08-17T14:33:02.248Z,8.38
2022-08-17T14:35:30.178Z,8.88
2022-08-17T14:38:04.437Z,8.48
2022-08-17T14:40:33.380Z,8.55
2022-08-17T14:43:05.153Z,8.55
2022-08-17T14:45:33.512Z,10.95
2022-08-17T14:48:07.728Z,9.07
2022-08-17T14:50:41.788Z,8.35
2022-08-17T14:53:12.282Z,9.40
2022-08-17T14:55:47.201Z,8.63
2022-08-17T14:58:21.111Z,7.57
2022-08-17T15:00:53.384Z,7.85
2022-08-17T15:03:25.419Z,8.77
2022-08-17T15:05:52.869Z,7.93
2022-08-17T15:08:19.938Z,8.63
2022-08-17T15:10:54.544Z,8.32
2022-08-17T15:13:25.003Z,8.50
2022-08-17T15:15:55.808Z,8.15
2022-08-17T15:18:26.436Z,8.13
2022-08-17T15:20:56.937Z,8.13
2022-08-17T15:23:31.958Z,9.00
2022-08-17T15:26:01.342Z,8.82
2022-08-17T15:28:33.214Z,7.63
2022-08-17T15:31:02.907Z,8.82
2022-08-17T15:33:35.090Z,7.82
2022-08-17T15:36:06.390Z,8.90
2022-08-17T15:38:39.563Z,8.43
2022-08-17T15:41:15.280Z,8.50
2022-08-17T15:43:45.882Z,7.78
2022-08-17T15:46:17.317Z,8.60
2022-08-17T15:48:58.895Z,8.30
2022-08-17T15:51:36.703Z,8.05
2022-08-17T15:54:19.256Z,8.93
2022-08-17T15:56:52.205Z,8.90
2022-08-17T15:59:19.634Z,8.75
2022-08-17T16:03:01.470Z,8.38
2022-08-17T16:04:37.953Z,9.25
2022-08-17T16:07:09.887Z,8.60
2022-08-17T16:09:41.868Z,8.77
2022-08-17T16:12:19.987Z,8.85
2022-08-17T16:14:51.699Z,8.83
2022-08-17T16:17:39.998Z,10.10
2022-08-17T16:20:19.918Z,8.90
2022-08-17T16:22:48.889Z,8.50
2022-08-17T16:25:21.022Z,9.63
2022-08-17T16:27:54.324Z,10.80
2022-08-17T16:30:24.927Z,8.88
2022-08-17T16:32:53.666Z,9.32
2022-08-17T16:35:26.930Z,10.05
2022-08-17T16:37:58.362Z,8.85
2022-08-17T16:40:28.242Z,8.93
2022-08-17T16:42:57.803Z,8.95
2022-08-17T16:45:36.844Z,8.85
2022-08-17T16:48:04.467Z,9.60
2022-08-17T16:50:40.302Z,8.05
2022-08-17T16:53:10.630Z,9.48
2022-08-17T16:55:47.142Z,8.63
2022-08-17T16:58:18.937Z,7.53
2022-08-17T17:00:48.791Z,8.52
2022-08-17T17:03:20.167Z,9.75
2022-08-17T17:06:13.443Z,8.95
2022-08-17T17:08:57.407Z,8.07
2022-08-17T17:11:33.779Z,8.95
2022-08-17T17:14:08.386Z,8.48
2022-08-17T17:16:35.607Z,8.07
2022-08-17T17:19:08.794Z,9.10
2022-08-17T17:21:51.850Z,9.48
2022-08-17T17:24:36.699Z,9.63
2022-08-17T17:27:13.314Z,8.45
2022-08-17T17:29:59.658Z,9.50
2022-08-17T17:32:50.726Z,8.68
2022-08-17T17:35:43.643Z,8.75
2022-08-17T17:38:22.879Z,9.48
2022-08-17T17:40:54.024Z,9.57
2022-08-17T17:43:40.296Z,9.20
2022-08-17T17:46:27.815Z,9.20
2022-08-17T17:48:57.977Z,9.82
2022-08-17T17:52:05.899Z,10.02
2022-08-17T17:54:57.816Z,9.80
2022-08-17T17:57:40.451Z,10.48
2022-08-17T18:00:19.526Z,13.35
2022-08-17T18:03:13.151Z,12.68
2022-08-17T18:05:58.592Z,15.93
2022-08-17T18:08:54.724Z,13.32
2022-08-17T18:12:00.278Z,13.68
2022-08-17T18:14:49.322Z,12.65
2022-08-17T18:17:20.267Z,12.73
2022-08-17T18:19:49.919Z,11.75
2022-08-17T18:22:23.757Z,11.38
2022-08-17T18:24:56.037Z,12.40
2022-08-17T18:27:41.281Z,12.48
2022-08-17T18:30:14.730Z,10.75
2022-08-17T18:32:46.386Z,12.75
2022-08-17T18:35:19.262Z,10.85
2022-08-17T18:37:53.255Z,11.90
2022-08-17T18:40:33.694Z,13.07
2022-08-17T18:43:03.024Z,11.95
2022-08-17T18:45:41.007Z,12.20
2022-08-17T18:48:48.697Z,13.05
2022-08-17T18:51:40.347Z,13.93
2022-08-17T18:54:27.687Z,14.10
2022-08-17T18:56:57.798Z,15.77
2022-08-17T18:59:47.176Z,17.60
2022-08-17T19:02:44.208Z,15.90
2022-08-17T19:05:13.555Z,15.00
2022-08-17T19:07:48.026Z,18.30
2022-08-17T19:10:46.157Z,16.92
2022-08-17T19:13:41.536Z,14.43
2022-08-17T19:16:34.978Z,13.88
2022-08-17T19:19:12.096Z,15.57
2022-08-17T19:21:53.159Z,14.70
2022-08-17T19:24:22.950Z,16.90
2022-08-17T19:27:06.346Z,15.15
2022-08-17T19:30:02.756Z,16.00
2022-08-17T19:32:37.937Z,14.00
2022-08-17T19:35:17.147Z,14.80
2022-08-17T19:37:58.603Z,14.60
2022-08-17T19:40:54.836Z,14.38
2022-08-17T19:43:54.097Z,15.13
2022-08-17T19:46:56.171Z,17.90
2022-08-17T19:49:46.471Z,19.60
2022-08-17T19:52:25.645Z,18.90
2022-08-17T19:55:31.776Z,20.95
2022-08-17T19:58:11.638Z,15.50
2022-08-17T20:00:51.262Z,17.58
2022-08-17T20:03:30.087Z,15.15
2022-08-17T20:06:12.911Z,16.17
2022-08-17T20:09:17.590Z,14.15
2022-08-17T20:12:04.015Z,15.32
2022-08-17T20:14:56.087Z,15.82
2022-08-17T20:17:31.919Z,16.35
2022-08-17T20:20:20.739Z,14.52
2022-08-17T20:23:07.182Z,13.80
2022-08-17T20:25:54.724Z,15.10
2022-08-17T20:28:34.344Z,13.75
2022-08-17T20:31:41.981Z,13.95
2022-08-17T20:34:37.476Z,13.88
2022-08-17T20:37:14.601Z,14.35
2022-08-17T20:39:49.099Z,14.85
2022-08-17T20:42:21.714Z,15.02
2022-08-17T20:45:02.843Z,14.40
2022-08-17T20:48:00.923Z,13.68
2022-08-17T20:50:38.789Z,16.48
2022-08-17T20:53:13.484Z,19.27
2022-08-17T20:55:52.425Z,18.48
2022-08-17T20:58:30.062Z,15.10
2022-08-17T21:01:19.886Z,16.67
2022-08-17T21:03:51.813Z,14.95
2022-08-17T21:06:25.301Z,14.93
2022-08-17T21:09:12.513Z,16.23
2022-08-17T21:12:03.849Z,13.75
2022-08-17T21:14:36.552Z,15.88
2022-08-17T21:17:34.145Z,14.80
2022-08-17T21:20:34.169Z,13.63
2022-08-17T21:23:22.573Z,14.38
2022-08-17T21:26:20.210Z,14.35
2022-08-17T21:29:29.719Z,15.43
2022-08-17T21:32:06.430Z,16.10
2022-08-17T21:34:44.771Z,14.25
2022-08-17T21:37:20.287Z,14.52
2022-08-17T21:40:21.361Z,15.18
2022-08-17T21:43:22.793Z,14.07
2022-08-17T21:46:06.697Z,14.90
2022-08-17T21:48:48.363Z,14.10
2022-08-17T21:51:29.963Z,14.27
2022-08-17T21:54:06.556Z,13.90
2022-08-17T21:56:41.570Z,14.00
2022-08-17T21:59:27.342Z,13.02
2022-08-17T22:02:20.158Z,14.88
2022-08-17T22:04:56.653Z,14.23
2022-08-17T22:07:36.526Z,14.02
2022-08-17T22:10:40.610Z,14.65
2022-08-17T22:13:19.755Z,14.73
2022-08-17T22:16:28.060Z,14.43
2022-08-17T22:19:01.642Z,13.65
2022-08-17T22:21:33.938Z,14.68
2022-08-17T22:24:21.404Z,14.20
2022-08-17T22:27:03.761Z,14.68
2022-08-17T22:29:57.123Z,14.38
2022-08-17T22:32:41.375Z,13.87
2022-08-17T22:35:28.541Z,14.88
2022-08-17T22:38:16.766Z,14.13
2022-08-17T22:40:56.709Z,13.65
2022-08-17T22:43:31.549Z,13.75
2022-08-17T22:46:08.660Z,13.65
2022-08-17T22:48:51.271Z,14.57
2022-08-17T22:51:27.983Z,14.68
2022-08-17T22:54:31.024Z,13.50
2022-08-17T22:57:23.314Z,14.52
2022-08-17T22:59:54.325Z,14.60
2022-08-17T23:02:30.509Z,14.27
2022-08-17T23:05:10.759Z,15.30
2022-08-17T23:07:38.500Z,14.48
2022-08-17T23:10:10.854Z,15.13
2022-08-17T23:12:38.904Z,15.00
2022-08-17T23:15:17.471Z,14.27
2022-08-17T23:17:49.320Z,14.52
2022-08-17T23:20:18.910Z,15.55
2022-08-17T23:22:51.748Z,15.20
2022-08-17T23:25:31.718Z,14.90
2022-08-17T23:28:07.547Z,15.90
2022-08-17T23:30:41.184Z,15.93
2022-08-17T23:33:19.130Z,15.30
2022-08-17T23:35:46.528Z,14.00
2022-08-17T23:38:16.332Z,15.13
2022-08-17T23:40:50.246Z,15.48
2022-08-17T23:43:24.781Z,13.73
2022-08-17T23:45:57.995Z,15.35
2022-08-17T23:48:35.055Z,15.35
2022-08-17T23:51:14.172Z,15.40
2022-08-17T23:53:46.271Z,17.63
2022-08-17T23:56:24.390Z,14.98
2022-08-17T23:58:56.494Z,15.40
